Time;durP1;ratioP1;P1;durP2;ratioP2;P2;SDS_P1;SDS_P2;PMS_P1;PMS_P2;Temp;Humidity;BMP_temperature;BMP_pressure;BME280_temperature;BME280_humidity;BME280_pressure;Samples;Min_cycle;Max_cycle;Signal;HPM_P1;HPM_P2
2023/06/25 00:00:31;;;;;;;;;5.00;5.00;;;;;12.85;100.00;98835.41;4996701;28;102184;-73
2023/06/25 00:02:58;;;;;;;;;4.75;4.00;;;;;12.83;100.00;98828.53;4938159;28;109947;-72
2023/06/25 00:05:35;;;;;;;;;4.00;2.50;;;;;12.89;100.00;98838.53;4928469;27;102205;-72
2023/06/25 00:08:21;;;;;;;;;2.00;1.00;;;;;12.85;100.00;98834.56;4926629;28;101952;-72
2023/06/25 00:11:08;;;;;;;;;3.50;3.50;;;;;12.82;100.00;98835.00;4981157;28;102060;-72
2023/06/25 00:13:57;;;;;;;;;5.50;5.25;;;;;12.85;100.00;98840.81;4981192;28;104052;-72
2023/06/25 00:16:48;;;;;;;;;6.75;5.50;;;;;12.80;100.00;98824.34;4984078;28;102190;-72
2023/06/25 00:19:26;;;;;;;;;5.25;5.00;;;;;12.79;100.00;98832.69;4960336;28;102950;-71
2023/06/25 00:21:54;;;;;;;;;3.50;3.00;;;;;12.77;100.00;98834.78;4988091;28;106029;-72
2023/06/25 00:24:20;;;;;;;;;2.75;2.75;;;;;12.73;100.00;98833.53;4987552;28;104238;-72
2023/06/25 00:26:48;;;;;;;;;4.00;4.00;;;;;12.71;100.00;98838.31;4985855;28;102312;-72
2023/06/25 00:29:15;;;;;;;;;5.50;5.50;;;;;12.70;100.00;98839.38;4964271;28;101813;-72
2023/06/25 00:31:42;;;;;;;;;5.50;4.00;;;;;12.61;100.00;98829.78;4994254;28;102675;-72
2023/06/25 00:34:10;;;;;;;;;6.25;5.75;;;;;12.64;100.00;98834.78;4959618;28;104128;-74
2023/06/25 00:36:36;;;;;;;;;6.00;5.00;;;;;12.64;100.00;98823.94;4975713;28;102198;-74
2023/06/25 00:39:04;;;;;;;;;4.00;4.00;;;;;12.52;100.00;98808.28;4932962;28;102468;-71
2023/06/25 00:41:32;;;;;;;;;4.00;4.00;;;;;12.62;100.00;98823.28;4884965;28;107302;-71
2023/06/25 00:43:59;;;;;;;;;4.00;4.00;;;;;12.66;100.00;98827.25;4917913;28;103961;-71
2023/06/25 00:46:26;;;;;;;;;4.00;4.00;;;;;12.65;100.00;98821.03;4812850;28;102400;-71
2023/06/25 00:48:53;;;;;;;;;1.25;1.25;;;;;12.68;100.00;98825.19;4987656;27;108664;-72
2023/06/25 00:51:27;;;;;;;;;2.50;2.50;;;;;12.67;100.00;98818.09;4998186;28;102260;-72
2023/06/25 00:53:54;;;;;;;;;3.25;3.00;;;;;12.68;100.00;98819.75;4958288;28;108706;-71
2023/06/25 00:56:31;;;;;;;;;3.75;3.00;;;;;12.65;100.00;98803.91;4983587;28;101868;-71
2023/06/25 00:59:02;;;;;;;;;2.00;2.00;;;;;12.68;100.00;98815.16;4984053;28;102246;-72
2023/06/25 01:01:55;;;;;;;;;3.00;3.00;;;;;12.68;100.00;98809.75;4986525;28;102100;-71
2023/06/25 01:04:25;;;;;;;;;2.00;2.00;;;;;12.70;100.00;98804.94;4978171;28;108779;-71
2023/06/25 01:07:04;;;;;;;;;3.00;3.00;;;;;12.66;100.00;98813.69;4972806;28;102159;-72
2023/06/25 01:09:54;;;;;;;;;2.25;2.25;;;;;12.71;100.00;98812.03;4984264;28;102016;-71
2023/06/25 01:12:33;;;;;;;;;4.50;4.00;;;;;12.67;100.00;98812.66;4816917;28;102138;-71
2023/06/25 01:15:19;;;;;;;;;4.00;4.00;;;;;12.68;100.00;98796.19;4776096;28;108767;-72
2023/06/25 01:18:18;;;;;;;;;5.00;4.00;;;;;12.60;100.00;98793.69;4918279;28;101852;-71
2023/06/25 01:21:01;;;;;;;;;1.75;1.75;;;;;12.65;100.00;98801.19;4927642;28;101991;-71
2023/06/25 01:23:29;;;;;;;;;5.00;5.00;;;;;12.64;100.00;98799.53;4949665;28;101997;-71
2023/06/25 01:25:56;;;;;;;;;4.00;4.00;;;;;12.61;100.00;98802.66;4925864;28;104141;-71
2023/06/25 01:28:23;;;;;;;;;3.75;3.75;;;;;12.60;100.00;98803.69;4905602;28;106693;-71
2023/06/25 01:30:52;;;;;;;;;4.00;3.75;;;;;12.53;100.00;98785.53;4812881;28;102323;-71
2023/06/25 01:33:21;;;;;;;;;4.75;4.00;;;;;12.52;100.00;98791.16;4776512;28;103562;-71
2023/06/25 01:35:48;;;;;;;;;5.25;4.00;;;;;12.51;100.00;98789.50;4938149;28;103975;-72
2023/06/25 01:38:15;;;;;;;;;2.00;2.00;;;;;12.51;100.00;98789.50;4906703;28;102032;-71
2023/06/25 01:40:42;;;;;;;;;4.25;4.00;;;;;12.44;100.00;98772.38;4948521;28;103764;-72
2023/06/25 01:43:09;;;;;;;;;4.00;4.00;;;;;12.51;100.00;98786.81;4941615;28;102392;-71
2023/06/25 01:45:37;;;;;;;;;6.00;5.00;;;;;12.48;100.00;98781.78;4942220;28;104197;-71
2023/06/25 01:48:05;;;;;;;;;4.00;3.25;;;;;12.49;100.00;98773.44;4954470;28;102343;-71
2023/06/25 01:50:32;;;;;;;;;2.75;2.75;;;;;12.43;100.00;98768.00;4944317;28;103920;-71
2023/06/25 01:52:59;;;;;;;;;5.75;5.25;;;;;12.30;100.00;98758.00;4957374;28;106056;-72
2023/06/25 01:55:26;;;;;;;;;4.25;4.25;;;;;12.45;100.00;98777.63;4953343;28;104037;-71
2023/06/25 01:57:53;;;;;;;;;3.75;3.75;;;;;12.49;100.00;98783.44;4950749;28;101914;-71
2023/06/25 02:00:20;;;;;;;;;7.25;6.00;;;;;12.47;100.00;98780.94;4945135;28;101999;-71
2023/06/25 02:02:47;;;;;;;;;6.00;6.00;;;;;12.49;100.00;98775.31;4957517;28;102045;-72
2023/06/25 02:05:15;;;;;;;;;4.00;4.00;;;;;12.51;100.00;98782.22;4949881;28;103997;-72
2023/06/25 02:07:42;;;;;;;;;6.00;6.00;;;;;12.48;100.00;98773.63;4955015;28;103092;-72
2023/06/25 02:10:09;;;;;;;;;5.25;5.25;;;;;12.50;100.00;98768.84;4958027;28;102302;-71
2023/06/25 02:12:36;;;;;;;;;4.75;4.75;;;;;12.52;100.00;98767.59;4959221;28;102050;-72
2023/06/25 02:15:03;;;;;;;;;4.75;4.00;;;;;12.53;100.00;98769.25;4979643;28;104199;-72
2023/06/25 02:17:30;;;;;;;;;3.50;3.00;;;;;12.56;100.00;98768.03;4985334;28;102304;-72
2023/06/25 02:19:58;;;;;;;;;4.00;3.50;;;;;12.59;100.00;98766.75;4995013;28;102084;-72
2023/06/25 02:22:25;;;;;;;;;4.50;4.00;;;;;12.60;100.00;98763.84;4849007;28;102134;-72
2023/06/25 02:24:52;;;;;;;;;8.50;5.75;;;;;12.62;100.00;98771.75;4983731;28;104365;-72
2023/06/25 02:27:19;;;;;;;;;6.75;5.75;;;;;12.60;100.00;98763.00;4997546;28;102386;-72
2023/06/25 02:29:46;;;;;;;;;5.25;4.75;;;;;12.60;100.00;98763.84;5000410;28;102282;-72
2023/06/25 02:32:13;;;;;;;;;5.00;5.00;;;;;12.65;100.00;98768.66;4962068;28;102111;-72
2023/06/25 02:34:40;;;;;;;;;7.00;7.00;;;;;12.69;100.00;98775.31;5000080;28;103357;-72
2023/06/25 02:37:16;;;;;;;;;5.50;5.00;;;;;12.71;100.00;98765.06;4983020;28;101958;-72
2023/06/25 02:39:43;;;;;;;;;5.50;5.25;;;;;12.74;100.00;98768.19;4971970;28;101922;-72
2023/06/25 02:42:10;;;;;;;;;5.00;4.25;;;;;12.77;100.00;98769.66;4995963;28;101970;-72
2023/06/25 02:44:37;;;;;;;;;6.50;6.50;;;;;12.72;100.00;98756.72;4999234;28;104176;-72
2023/06/25 02:47:04;;;;;;;;;8.75;7.50;;;;;12.82;100.00;98765.28;4993241;28;102035;-72
2023/06/25 02:49:31;;;;;;;;;7.25;7.00;;;;;12.85;100.00;98772.16;4982268;28;102165;-72
2023/06/25 02:51:59;;;;;;;;;6.00;6.00;;;;;12.86;100.00;98768.41;4994228;28;102306;-72
2023/06/25 02:54:26;;;;;;;;;2.75;2.75;;;;;12.87;100.00;98772.78;4992768;28;104269;-72
2023/06/25 02:56:53;;;;;;;;;9.50;8.00;;;;;12.90;100.00;98769.63;4991313;28;102072;-72
2023/06/25 02:59:20;;;;;;;;;7.75;7.25;;;;;12.91;100.00;98765.88;4993189;27;103057;-72
2023/06/25 03:01:47;;;;;;;;;5.25;4.50;;;;;12.95;100.00;98767.97;4972919;28;102048;-72
2023/06/25 03:04:14;;;;;;;;;8.00;6.25;;;;;12.96;100.00;98764.22;4984202;28;103047;-72
2023/06/25 03:06:42;;;;;;;;;10.00;7.50;;;;;13.02;100.00;98767.94;4991178;28;102217;-72
2023/06/25 03:09:09;;;;;;;;;5.50;4.75;;;;;13.05;100.00;98763.97;4993514;28;102092;-72
2023/06/25 03:11:36;;;;;;;;;8.75;8.75;;;;;13.10;100.00;98765.00;4989676;28;102084;-72
2023/06/25 03:14:03;;;;;;;;;7.00;7.00;;;;;13.13;100.00;98764.59;4978102;28;104165;-72
2023/06/25 03:16:30;;;;;;;;;12.00;8.75;;;;;13.12;100.00;98765.66;4990678;28;101930;-72
2023/06/25 03:18:58;;;;;;;;;9.75;7.25;;;;;13.20;100.00;98778.97;4964627;28;103256;-72
2023/06/25 03:21:25;;;;;;;;;8.00;7.25;;;;;13.24;100.00;98777.50;4998774;28;102357;-72
2023/06/25 03:23:52;;;;;;;;;11.75;9.00;;;;;13.28;100.00;98777.94;4964817;28;104034;-72
2023/06/25 03:26:19;;;;;;;;;8.00;7.00;;;;;13.30;100.00;98776.66;4964444;27;102407;-72
2023/06/25 03:28:46;;;;;;;;;11.25;9.75;;;;;13.36;100.00;98780.41;4976437;28;102467;-72
2023/06/25 03:31:13;;;;;;;;;7.75;6.50;;;;;13.40;100.00;98782.47;4969763;28;102017;-72
2023/06/25 03:33:40;;;;;;;;;10.00;10.00;;;;;13.44;100.00;98782.03;4990495;28;104040;-72
2023/06/25 03:36:08;;;;;;;;;11.00;8.00;;;;;13.49;100.00;98776.81;4986780;28;102417;-72
2023/06/25 03:38:35;;;;;;;;;7.25;7.00;;;;;13.52;100.00;98784.50;4979858;28;102286;-72
2023/06/25 03:41:02;;;;;;;;;8.75;7.50;;;;;13.53;100.00;98775.31;4971844;28;102004;-71
2023/06/25 03:43:29;;;;;;;;;6.00;6.00;;;;;13.63;100.00;98781.13;4989328;28;104386;-71
2023/06/25 03:45:56;;;;;;;;;6.00;6.00;;;;;13.66;100.00;98784.25;4989180;28;102077;-71
2023/06/25 03:48:23;;;;;;;;;5.25;5.00;;;;;13.69;100.00;98772.09;4993204;28;103780;-72
2023/06/25 03:50:50;;;;;;;;;5.75;5.25;;;;;13.86;100.00;98786.88;4991365;28;102461;-71
2023/06/25 03:53:17;;;;;;;;;2.00;2.00;;;;;13.91;100.00;98778.91;4983962;28;103993;-71
2023/06/25 03:55:44;;;;;;;;;5.00;5.00;;;;;13.99;100.00;98789.50;4991638;28;102293;-72
2023/06/25 03:58:12;;;;;;;;;4.50;4.25;;;;;13.99;100.00;98770.50;4967340;28;102102;-72
2023/06/25 04:00:39;;;;;;;;;7.00;6.00;;;;;14.16;100.00;98787.09;4999343;28;102345;-71
2023/06/25 04:03:06;;;;;;;;;5.75;5.50;;;;;14.21;100.00;98779.97;4990463;28;103969;-72
2023/06/25 04:05:33;;;;;;;;;9.50;8.75;;;;;14.26;100.00;98777.41;4946831;28;102315;-71
2023/06/25 04:08:01;;;;;;;;;6.50;6.50;;;;;14.37;100.00;98775.03;4955013;28;101931;-71
2023/06/25 04:10:28;;;;;;;;;6.75;6.75;;;;;14.40;100.00;98769.19;4957412;28;102291;-71
2023/06/25 04:12:55;;;;;;;;;9.25;7.50;;;;;14.42;100.00;98765.16;4952478;28;103064;-72
2023/06/25 04:15:22;;;;;;;;;10.00;10.00;;;;;14.48;100.00;98772.47;4951404;28;102216;-72
2023/06/25 04:17:49;;;;;;;;;6.25;6.25;;;;;14.58;100.00;98774.69;4957684;28;101811;-71
2023/06/25 04:20:17;;;;;;;;;7.00;7.00;;;;;14.65;100.00;98762.69;4954143;28;102173;-71
2023/06/25 04:22:43;;;;;;;;;5.00;5.00;;;;;14.76;100.00;98766.56;4955588;28;108872;-71
2023/06/25 04:25:10;;;;;;;;;9.25;7.50;;;;;14.84;100.00;98760.84;4958227;28;102245;-71
2023/06/25 04:27:38;;;;;;;;;8.00;7.50;;;;;14.94;100.00;98763.88;4958937;28;102644;-71
2023/06/25 04:30:05;;;;;;;;;7.25;6.75;;;;;15.05;100.00;98760.41;4949209;28;102355;-71
2023/06/25 04:32:33;;;;;;;;;7.75;7.25;;;;;15.14;100.00;98756.31;4958418;28;104367;-71
2023/06/25 04:35:00;;;;;;;;;3.00;3.00;;;;;15.22;100.00;98762.53;4958004;28;107932;-71
2023/06/25 04:37:27;;;;;;;;;6.00;5.00;;;;;15.26;100.00;98763.75;4959869;28;102021;-71
2023/06/25 04:39:54;;;;;;;;;5.75;5.75;;;;;15.30;100.00;98756.78;4950854;28;102378;-71
2023/06/25 04:42:21;;;;;;;;;10.25;6.75;;;;;15.34;100.00;98763.44;4949541;28;104566;-71
2023/06/25 04:44:51;;;;;;;;;12.75;12.00;;;;;15.34;100.00;98747.09;4959187;28;101841;-71
2023/06/25 04:47:18;;;;;;;;;10.75;10.00;;;;;15.53;100.00;98759.69;4946025;28;102075;-71
2023/06/25 04:49:45;;;;;;;;;7.50;7.25;;;;;15.63;100.00;98757.22;4961744;28;102031;-71
2023/06/25 04:52:18;;;;;;;;;10.75;10.75;;;;;15.80;100.00;98763.72;4956588;28;103985;-71
2023/06/25 04:54:45;;;;;;;;;11.00;10.00;;;;;15.91;100.00;98751.19;4951703;28;102116;-71
2023/06/25 04:57:12;;;;;;;;;9.50;9.00;;;;;16.28;99.54;98754.63;4934726;28;102550;-71
2023/06/25 04:59:39;;;;;;;;;8.50;8.50;;;;;16.57;98.07;98752.91;4959796;28;101933;-71
2023/06/25 05:02:07;;;;;;;;;11.50;9.75;;;;;16.89;97.20;98746.03;4959172;28;106626;-71
2023/06/25 05:04:34;;;;;;;;;11.75;9.00;;;;;17.11;94.55;98743.56;4951781;28;102303;-72
2023/06/25 05:07:03;;;;;;;;;15.50;14.50;;;;;17.39;95.49;98744.44;4946226;28;102784;-71
2023/06/25 05:09:31;;;;;;;;;25.75;23.00;;;;;17.69;92.38;98740.72;4897252;28;101961;-70
2023/06/25 05:11:58;;;;;;;;;18.50;17.00;;;;;17.86;93.04;98746.22;4866012;28;104015;-71
2023/06/25 05:14:25;;;;;;;;;4.50;4.00;;;;;18.08;91.29;98736.25;4888931;28;103773;-71
2023/06/25 05:16:52;;;;;;;;;17.00;16.50;;;;;18.31;90.15;98736.13;4937389;28;101958;-72
2023/06/25 05:19:19;;;;;;;;;14.67;12.33;;;;;18.36;88.35;98741.69;4888359;28;103981;-72
2023/06/25 05:21:46;;;;;;;;;16.00;14.25;;;;;18.58;88.09;98745.38;4947795;28;104166;-72
2023/06/25 05:24:13;;;;;;;;;10.00;9.33;;;;;18.73;86.64;98742.06;4918144;28;102372;-71
2023/06/25 05:26:40;;;;;;;;;9.33;8.00;;;;;18.88;87.57;98744.19;4938498;28;104200;-71
2023/06/25 05:29:07;;;;;;;;;19.75;17.75;;;;;18.96;84.86;98743.75;4931278;28;102422;-71
2023/06/25 05:31:34;;;;;;;;;13.00;12.00;;;;;18.73;86.39;98742.06;4931734;28;104015;-71
2023/06/25 05:34:01;;;;;;;;;11.00;9.33;;;;;18.92;86.10;98745.34;4946554;28;107511;-71
2023/06/25 05:36:29;;;;;;;;;8.00;8.00;;;;;19.12;85.34;98745.66;4958399;28;101949;-71
2023/06/25 05:38:56;;;;;;;;;18.00;16.00;;;;;19.30;84.93;98742.59;4956470;28;102184;-71
2023/06/25 05:41:22;;;;;;;;;23.50;22.50;;;;;19.66;88.61;98751.31;4953620;28;104020;-71
2023/06/25 05:43:49;;;;;;;;;33.75;28.75;;;;;19.93;85.81;98752.19;4960021;28;101992;-71
2023/06/25 05:46:17;;;;;;;;;17.33;16.00;;;;;20.00;81.65;98752.81;4888302;28;102026;-71
2023/06/25 05:48:44;;;;;;;;;15.67;15.67;;;;;19.81;81.14;98746.03;4940446;28;102248;-71
2023/06/25 05:51:11;;;;;;;;;13.00;11.00;;;;;19.97;80.24;98754.16;4938408;28;104216;-73
2023/06/25 05:53:42;;;;;;;;;20.67;19.67;;;;;19.74;82.69;98745.38;4949751;28;101949;-71
2023/06/25 05:56:09;;;;;;;;;20.00;19.67;;;;;20.02;81.77;98745.97;4950682;28;102221;-71
2023/06/25 05:58:37;;;;;;;;;16.67;15.67;;;;;20.05;78.70;98744.63;4951007;28;102395;-71
2023/06/25 06:01:04;;;;;;;;;17.00;14.00;;;;;20.13;80.55;98746.91;4952124;28;104147;-71
2023/06/25 06:03:32;;;;;;;;;17.33;17.00;;;;;20.35;82.59;98739.47;4953881;28;102349;-71
2023/06/25 06:06:00;;;;;;;;;25.00;22.33;;;;;20.55;80.26;98740.72;4950328;28;102175;-71
2023/06/25 06:08:27;;;;;;;;;12.00;12.00;;;;;20.67;77.90;98735.91;4958214;28;102560;-71
2023/06/25 06:10:56;;;;;;;;;10.67;10.00;;;;;20.76;76.43;98734.28;4930613;28;104366;-71
2023/06/25 06:13:23;;;;;;;;;12.00;12.00;;;;;20.68;77.88;98737.53;4955926;28;101973;-71
2023/06/25 06:15:50;;;;;;;;;11.33;10.00;;;;;20.88;81.10;98740.47;4948739;28;102176;-71
2023/06/25 06:18:17;;;;;;;;;25.00;19.00;;;;;20.94;78.88;98736.63;4958673;28;102016;-71
2023/06/25 06:20:44;;;;;;;;;17.00;17.00;;;;;20.95;77.71;98732.78;4956543;28;104029;-71
2023/06/25 06:23:11;;;;;;;;;27.33;22.67;;;;;21.22;78.37;98738.22;4956417;28;102249;-71
2023/06/25 06:25:38;;;;;;;;;15.33;12.67;;;;;21.36;73.57;98731.13;4954544;28;101931;-71
2023/06/25 06:28:05;;;;;;;;;13.00;12.00;;;;;21.49;73.99;98738.06;4955785;28;101917;-70
2023/06/25 06:30:33;;;;;;;;;10.00;10.00;;;;;21.34;72.43;98741.59;4944561;28;108689;-71
2023/06/25 06:33:00;;;;;;;;;13.33;13.33;;;;;20.88;75.46;98744.03;4905042;28;102424;-71
2023/06/25 06:35:27;;;;;;;;;12.67;11.00;;;;;20.95;75.63;98727.28;4938306;28;102176;-71
2023/06/25 06:37:54;;;;;;;;;10.33;10.00;;;;;20.99;74.74;98733.09;4920723;28;102080;-71
2023/06/25 06:40:21;;;;;;;;;15.67;13.33;;;;;21.07;78.63;98725.19;4905783;28;104154;-71
2023/06/25 06:42:48;;;;;;;;;10.33;10.00;;;;;21.30;75.97;98741.28;4935083;28;102133;-71
2023/06/25 06:45:15;;;;;;;;;7.00;7.00;;;;;21.58;75.31;98731.78;4844067;28;102261;-71
2023/06/25 06:47:43;;;;;;;;;16.00;16.00;;;;;21.91;78.19;98733.28;4886294;28;102370;-71
2023/06/25 06:50:11;;;;;;;;;13.67;13.00;;;;;21.61;74.18;98724.94;4900562;28;104088;-67
2023/06/25 06:52:38;;;;;;;;;13.00;13.00;;;;;21.31;75.72;98725.59;4958436;28;102011;-70
2023/06/25 06:55:05;;;;;;;;;5.67;5.33;;;;;21.65;74.43;98726.88;4913793;28;108056;-70
2023/06/25 06:57:32;;;;;;;;;10.67;10.67;;;;;21.57;73.95;98712.81;4896140;28;101970;-70
2023/06/25 07:00:04;;;;;;;;;12.00;9.00;;;;;21.22;73.67;98718.97;4794191;28;105144;-72
2023/06/25 07:02:31;;;;;;;;;6.33;6.00;;;;;21.75;72.42;98726.91;4952663;28;102042;-70
2023/06/25 07:04:58;;;;;;;;;14.67;14.00;;;;;21.78;76.00;98725.53;4792378;28;102198;-70
2023/06/25 07:07:25;;;;;;;;;8.33;7.00;;;;;21.98;74.71;98725.63;4956827;28;102067;-70
2023/06/25 07:09:55;;;;;;;;;8.67;8.67;;;;;22.18;73.11;98722.91;4956504;28;104003;-70
2023/06/25 07:12:22;;;;;;;;;9.67;8.67;;;;;22.15;72.14;98712.44;4955340;28;102004;-70
2023/06/25 07:14:50;;;;;;;;;6.67;6.00;;;;;22.27;74.55;98712.19;4950839;28;104097;-71
2023/06/25 07:17:17;;;;;;;;;7.00;7.00;;;;;22.59;71.75;98714.69;4959429;28;102492;-71
2023/06/25 07:19:44;;;;;;;;;9.00;8.00;;;;;22.56;69.83;98716.03;4924675;28;104203;-71
2023/06/25 07:22:11;;;;;;;;;10.67;10.67;;;;;22.68;73.43;98708.34;4956237;28;101937;-71
2023/06/25 07:24:38;;;;;;;;;7.00;7.00;;;;;22.93;67.64;98710.25;4896937;28;101990;-71
2023/06/25 07:27:05;;;;;;;;;11.00;9.33;;;;;22.72;71.25;98708.63;4906686;28;102573;-72
2023/06/25 07:29:32;;;;;;;;;7.33;7.00;;;;;22.92;67.76;98708.59;4911343;28;107204;-71
2023/06/25 07:31:59;;;;;;;;;7.33;7.00;;;;;22.87;69.50;98713.31;4949873;28;102572;-71
2023/06/25 07:34:26;;;;;;;;;8.67;8.67;;;;;23.10;67.70;98715.44;4947096;28;102095;-71
2023/06/25 07:36:56;;;;;;;;;4.67;4.67;;;;;23.12;66.34;98707.75;4830987;28;102420;-71
2023/06/25 07:39:29;;;;;;;;;7.00;7.00;;;;;22.97;67.11;98705.84;4888914;28;110538;-71
2023/06/25 07:41:57;;;;;;;;;7.33;7.00;;;;;22.87;68.29;98705.88;4951371;28;101953;-71
2023/06/25 07:44:25;;;;;;;;;10.33;10.00;;;;;22.67;68.76;98705.84;4915634;28;103109;-71
2023/06/25 07:47:08;;;;;;;;;12.67;12.00;;;;;22.37;69.83;98694.84;4926338;28;102034;-71
2023/06/25 07:49:35;;;;;;;;;10.00;9.33;;;;;22.69;69.75;98700.91;4941251;28;104001;-71
2023/06/25 07:52:03;;;;;;;;;9.00;8.33;;;;;22.86;69.24;98684.09;4954477;28;103001;-71
2023/06/25 07:54:30;;;;;;;;;9.67;8.33;;;;;22.89;67.77;98698.13;4932890;28;101965;-71
2023/06/25 07:56:57;;;;;;;;;11.00;10.00;;;;;22.52;67.75;98689.31;4955511;28;107686;-71
2023/06/25 07:59:24;;;;;;;;;10.67;10.00;;;;;22.81;67.53;98689.59;4929481;28;104000;-71
2023/06/25 08:02:01;;;;;;;;;11.67;11.00;;;;;23.01;69.32;98695.09;4926075;28;102537;-71
2023/06/25 08:04:28;;;;;;;;;14.00;11.00;;;;;22.77;67.29;98694.84;4943581;28;102370;-71
2023/06/25 08:06:55;;;;;;;;;10.33;9.67;;;;;22.90;67.38;98688.75;4954406;28;102329;-70
2023/06/25 08:09:22;;;;;;;;;9.00;9.00;;;;;23.14;64.52;98687.03;4940655;28;104178;-71
2023/06/25 08:11:49;;;;;;;;;8.33;8.33;;;;;23.21;66.78;98685.91;4935709;28;101722;-69
2023/06/25 08:14:16;;;;;;;;;15.33;15.33;;;;;23.03;65.69;98698.38;4954883;28;101797;-71
2023/06/25 08:16:43;;;;;;;;;11.00;10.33;;;;;23.48;66.85;98689.16;4954635;28;102248;-71
2023/06/25 08:19:10;;;;;;;;;8.33;8.33;;;;;23.53;63.83;98687.22;4954309;28;104016;-71
2023/06/25 08:21:37;;;;;;;;;10.33;9.33;;;;;23.61;63.67;98688.53;4953621;28;102400;-70
2023/06/25 08:24:07;;;;;;;;;9.33;9.33;;;;;23.55;64.28;98692.44;4956019;28;101972;-70
2023/06/25 08:26:34;;;;;;;;;7.33;7.00;;;;;23.75;61.85;98684.06;4958267;28;102354;-70
2023/06/25 08:29:01;;;;;;;;;9.00;9.00;;;;;23.67;62.37;98679.13;4956645;28;104023;-71
2023/06/25 08:31:28;;;;;;;;;8.67;8.33;;;;;23.46;61.97;98681.16;4959626;28;102274;-70
2023/06/25 08:33:55;;;;;;;;;10.00;9.67;;;;;22.96;64.46;98681.31;4954790;28;102131;-71
2023/06/25 08:36:22;;;;;;;;;10.67;10.00;;;;;22.35;65.25;98639.16;4958399;28;102273;-70
2023/06/25 08:38:49;;;;;;;;;8.00;7.00;;;;;22.77;65.73;98677.47;4958307;28;104019;-70
2023/06/25 08:41:16;;;;;;;;;8.00;8.00;;;;;22.85;67.77;98674.97;4961574;28;102180;-70
2023/06/25 08:43:43;;;;;;;;;8.67;7.67;;;;;22.73;63.58;98674.47;4956777;28;101978;-71
2023/06/25 08:46:10;;;;;;;;;7.67;7.67;;;;;22.67;65.25;98679.13;4961110;28;102025;-71
2023/06/25 08:48:39;;;;;;;;;6.33;6.00;;;;;23.02;65.45;98677.41;4958962;28;108735;-71
2023/06/25 08:51:15;;;;;;;;;7.00;6.67;;;;;23.21;59.22;98678.47;4955914;28;102219;-71
2023/06/25 08:53:44;;;;;;;;;17.67;15.00;;;;;22.56;61.00;98673.91;4954575;28;102832;-70
2023/06/25 08:56:14;;;;;;;;;12.00;12.00;;;;;22.57;64.57;98653.47;4963512;28;107730;-71
2023/06/25 08:58:41;;;;;;;;;10.33;10.00;;;;;22.84;59.94;98678.00;4956271;28;108822;-70
2023/06/25 09:01:10;;;;;;;;;12.00;11.67;;;;;22.80;58.97;98676.91;4962715;28;102192;-71
2023/06/25 09:03:37;;;;;;;;;8.00;8.00;;;;;23.05;59.77;98680.47;4955675;28;102908;-71
2023/06/25 09:06:12;;;;;;;;;8.33;6.33;;;;;23.06;61.37;98676.56;4960571;28;102026;-72
2023/06/25 09:08:41;;;;;;;;;8.00;8.00;;;;;22.97;62.41;98682.94;4957733;28;108704;-71
2023/06/25 09:11:09;;;;;;;;;7.67;6.33;;;;;22.99;61.56;98670.53;4957612;28;102275;-71
2023/06/25 09:13:37;;;;;;;;;4.00;4.00;;;;;23.08;61.07;98679.91;4960256;28;102299;-72
2023/06/25 09:16:07;;;;;;;;;7.33;6.67;;;;;22.88;63.57;98668.91;4961088;28;102397;-71
2023/06/25 09:18:35;;;;;;;;;7.67;7.00;;;;;22.92;65.02;98672.75;4957329;28;103965;-71
2023/06/25 09:21:03;;;;;;;;;8.00;8.00;;;;;22.88;62.93;98673.59;4959523;28;102280;-72
2023/06/25 09:23:32;;;;;;;;;5.33;5.00;;;;;23.36;61.12;98672.91;4960187;28;102109;-71
2023/06/25 09:26:05;;;;;;;;;9.00;6.67;;;;;23.24;61.14;98666.88;4961778;28;102287;-71
2023/06/25 09:28:33;;;;;;;;;11.33;10.67;;;;;23.00;60.65;98665.84;4955511;28;104042;-72
2023/06/25 09:31:00;;;;;;;;;9.33;9.00;;;;;22.84;62.97;98666.97;4959340;28;102782;-70
2023/06/25 09:33:35;;;;;;;;;11.00;10.00;;;;;22.65;62.49;98677.72;4959564;28;102108;-70
2023/06/25 09:36:03;;;;;;;;;14.00;11.33;;;;;22.22;60.71;98676.38;4959281;28;102135;-70
2023/06/25 09:38:49;;;;;;;;;12.00;10.00;;;;;22.20;62.77;98662.03;4958027;28;108495;-69
2023/06/25 09:41:18;;;;;;;;;6.67;6.00;;;;;22.47;65.44;98668.09;4959519;28;102361;-71
2023/06/25 09:43:45;;;;;;;;;12.33;11.00;;;;;22.59;62.09;98629.22;4958138;28;102234;-70
2023/06/25 09:46:15;;;;;;;;;13.67;10.00;;;;;22.93;62.52;98660.63;4959817;28;103458;-70
2023/06/25 09:48:44;;;;;;;;;10.33;10.33;;;;;22.85;63.27;98658.44;4959326;28;103995;-69
2023/06/25 09:51:14;;;;;;;;;12.33;12.33;;;;;23.25;61.50;98656.66;4956127;28;102184;-71
2023/06/25 09:53:44;;;;;;;;;10.67;9.67;;;;;23.72;59.10;98650.69;4957912;28;101977;-71
2023/06/25 10:27:40;;;;;;;;;6.00;6.00;;;;;22.96;55.41;98635.25;4331407;28;104073;-71
2023/06/25 10:30:15;;;;;;;;;4.33;4.33;;;;;23.05;56.97;98633.56;4955111;28;108495;-71
2023/06/25 10:32:43;;;;;;;;;4.33;3.00;;;;;23.13;57.51;98635.75;4953532;28;102345;-69
2023/06/25 10:35:17;;;;;;;;;6.00;5.00;;;;;23.24;56.67;98628.22;4959991;28;102230;-70
2023/06/25 10:37:44;;;;;;;;;6.00;6.00;;;;;23.63;55.81;98635.81;4958611;28;102460;-70
2023/06/25 10:40:12;;;;;;;;;6.67;6.00;;;;;23.84;50.78;98620.75;4954911;28;104106;-67
2023/06/25 10:42:39;;;;;;;;;5.00;5.00;;;;;24.14;48.68;98623.28;4958242;28;102174;-72
2023/06/25 10:45:06;;;;;;;;;7.67;7.67;;;;;24.31;51.76;98625.69;4956259;28;102120;-70
2023/06/25 10:47:34;;;;;;;;;8.00;7.00;;;;;24.52;48.59;98626.31;4958909;28;102003;-71
2023/06/25 10:50:01;;;;;;;;;10.67;10.00;;;;;24.39;46.99;98620.38;4956560;28;104091;-70
2023/06/25 10:52:29;;;;;;;;;10.33;8.00;;;;;24.38;47.49;98620.66;4955205;28;102220;-70
2023/06/25 10:54:56;;;;;;;;;7.33;7.00;;;;;24.37;50.33;98616.22;4955712;28;101891;-70
2023/06/25 10:57:23;;;;;;;;;8.00;7.00;;;;;24.64;50.94;98610.16;4957831;28;102195;-70
2023/06/25 10:59:51;;;;;;;;;7.00;7.00;;;;;24.73;52.31;98612.00;4953765;28;107517;-71
2023/06/25 11:02:20;;;;;;;;;7.33;7.33;;;;;24.76;52.66;98611.44;4950517;28;102461;-70
2023/06/25 11:04:53;;;;;;;;;12.00;11.00;;;;;24.19;51.62;98608.66;4951008;28;101961;-71
2023/06/25 11:07:22;;;;;;;;;12.33;12.33;;;;;24.17;51.25;98606.19;4953908;28;101933;-71
2023/06/25 11:09:57;;;;;;;;;11.33;10.67;;;;;24.61;51.53;98602.47;4953486;28;104006;-71
2023/06/25 11:12:25;;;;;;;;;5.00;5.00;;;;;24.65;51.42;98604.34;4953088;28;104107;-71
2023/06/25 11:14:52;;;;;;;;;9.00;6.67;;;;;24.68;50.79;98594.63;4950184;28;102415;-71
2023/06/25 11:17:19;;;;;;;;;10.33;9.33;;;;;24.27;53.94;98586.75;4954319;28;101995;-71
2023/06/25 11:19:54;;;;;;;;;12.00;9.00;;;;;24.06;53.12;98589.94;4954694;28;104161;-70
2023/06/25 11:22:21;;;;;;;;;7.33;7.33;;;;;23.96;53.26;98586.16;4957056;28;101893;-71
2023/06/25 11:24:49;;;;;;;;;7.67;7.67;;;;;24.15;54.62;98594.56;4957412;28;104223;-71
2023/06/25 11:27:25;;;;;;;;;9.67;9.67;;;;;23.93;53.70;98588.66;4830720;28;102329;-71
2023/06/25 11:29:54;;;;;;;;;9.33;9.00;;;;;23.89;52.02;98593.94;4953714;28;104795;-71
2023/06/25 11:32:23;;;;;;;;;7.67;7.00;;;;;24.16;50.65;98595.41;4952932;28;102040;-71
2023/06/25 11:34:50;;;;;;;;;9.67;8.00;;;;;24.19;49.74;98573.56;4952988;28;102595;-71
2023/06/25 11:37:22;;;;;;;;;9.33;8.00;;;;;24.53;46.76;98583.75;4954187;28;102048;-70
2023/06/25 11:39:51;;;;;;;;;9.33;7.67;;;;;24.66;48.14;98559.00;4953494;28;103981;-71
2023/06/25 11:42:23;;;;;;;;;7.00;6.00;;;;;24.98;51.52;98574.16;4953022;28;102135;-71
2023/06/25 11:45:05;;;;;;;;;6.00;6.00;;;;;25.23;50.11;98576.59;4955167;28;102297;-70
2023/06/25 11:47:32;;;;;;;;;6.00;6.00;;;;;25.21;45.86;98578.84;4957720;28;102342;-71
2023/06/25 11:50:01;;;;;;;;;7.67;7.33;;;;;25.05;49.28;98574.59;4956708;28;104197;-70
2023/06/25 11:52:28;;;;;;;;;9.00;7.33;;;;;25.13;50.19;98582.25;4955301;28;102346;-70
2023/06/25 11:54:55;;;;;;;;;8.00;7.00;;;;;25.07;48.53;98577.91;4956706;28;102351;-70